Airport View

Enter AWOS ICAO identifier for current METAR.

ex. KFNL

KINF 210035Z AUTO 07004KT 10SM CLR 25/21 A3014 RMK AO2

21 Sep 2019 00:25

Frequency: 119.975

Phone: 352-341-0264

Other Area AWOS: KCGC - KVVG - KBKV - KOCF

TAF KLEE 202320Z 2100/2124 08010KT P6SM FEW045 FM210200 07006KT P6SM SCT040 FM211500 08013G20KT P6SM SCT030